Time;durP1;ratioP1;P1;durP2;ratioP2;P2;SDS_P1;SDS_P2;PMS_P1;PMS_P2;Temp;Humidity;BMP_temperature;BMP_pressure;BME280_temperature;BME280_humidity;BME280_pressure;Samples;Min_cycle;Max_cycle;Signal;HPM_P1;HPM_P2
2022/06/22 00:00:16;;;;;;;4.90;3.63;;;;;;;19.99;97.03;95381.69;5071983;28;24426;-77
2022/06/22 00:02:44;;;;;;;5.82;3.80;;;;;;;19.87;97.31;95373.28;5072013;28;24430;-77
2022/06/22 00:05:18;;;;;;;5.90;3.67;;;;;;;19.93;96.52;95366.56;5071895;28;24421;-77
2022/06/22 00:07:50;;;;;;;5.35;3.60;;;;;;;19.88;97.17;95353.94;5071239;28;24439;-77
2022/06/22 00:10:19;;;;;;;5.15;3.70;;;;;;;19.96;96.10;95340.78;5071687;28;24485;-77
2022/06/22 00:12:49;;;;;;;8.38;3.83;;;;;;;20.15;95.33;95336.19;5071867;28;24442;-77
2022/06/22 00:15:23;;;;;;;5.60;3.60;;;;;;;20.10;96.60;95326.16;5071840;28;24426;-77
2022/06/22 00:17:49;;;;;;;6.15;4.10;;;;;;;19.72;97.66;95322.38;5071678;28;24427;-77
2022/06/22 00:20:26;;;;;;;6.68;4.00;;;;;;;19.75;97.83;95324.69;5071790;28;24791;-77
2022/06/22 00:22:54;;;;;;;4.78;3.53;;;;;;;19.85;97.59;95312.19;5071806;28;24426;-77
2022/06/22 00:25:23;;;;;;;6.00;3.50;;;;;;;19.87;97.81;95315.47;5071727;28;24540;-77
2022/06/22 00:27:50;;;;;;;6.22;3.30;;;;;;;19.79;97.99;95316.28;5071684;28;24792;-77
2022/06/22 00:30:29;;;;;;;4.47;3.50;;;;;;;19.82;96.90;95317.78;5071240;28;24967;-77
2022/06/22 00:33:14;;;;;;;6.35;3.45;;;;;;;19.62;99.31;95319.06;5071669;28;24407;-77
2022/06/22 00:35:49;;;;;;;5.57;3.85;;;;;;;19.54;100.00;95320.69;5071608;28;24448;-77
2022/06/22 00:38:18;;;;;;;6.00;3.80;;;;;;;19.53;100.00;95319.03;5071554;28;24520;-77
2022/06/22 00:40:47;;;;;;;10.70;3.83;;;;;;;19.59;100.00;95326.28;5071286;28;24951;-77
2022/06/22 00:43:16;;;;;;;7.28;3.67;;;;;;;19.63;100.00;95324.19;5071581;28;24430;-77
2022/06/22 00:45:43;;;;;;;4.82;3.20;;;;;;;19.69;99.24;95318.28;5071530;28;24772;-77
2022/06/22 00:48:20;;;;;;;5.00;3.65;;;;;;;19.74;99.21;95320.41;5071489;28;24769;-77
2022/06/22 00:50:55;;;;;;;6.10;3.95;;;;;;;19.76;98.96;95331.56;5071530;28;24484;-77
2022/06/22 00:53:30;;;;;;;4.80;3.20;;;;;;;19.74;99.58;95338.81;5071517;28;24437;-77
2022/06/22 00:56:00;;;;;;;5.70;3.95;;;;;;;19.52;100.00;95346.28;5071135;28;24943;-76
2022/06/22 00:58:33;;;;;;;5.87;3.73;;;;;;;19.46;100.00;95344.31;5071372;28;24427;-77
2022/06/22 01:01:05;;;;;;;5.55;3.75;;;;;;;19.33;100.00;95341.34;5071436;28;24422;-76
2022/06/22 01:03:39;;;;;;;6.93;4.43;;;;;;;19.26;100.00;95343.78;5071410;28;24415;-77
2022/06/22 01:06:13;;;;;;;10.48;4.28;;;;;;;19.40;100.00;95352.84;5071310;28;24775;-77
2022/06/22 01:08:45;;;;;;;5.63;3.70;;;;;;;19.47;100.00;95343.34;5087558;22;25023;-75
2022/06/22 01:14:04;;;;;;;10.20;3.90;;;;;;;19.64;100.00;95346.81;5029799;28;24420;-74
2022/06/22 01:16:36;;;;;;;5.03;3.40;;;;;;;19.45;100.00;95347.91;5030282;28;24773;-75
2022/06/22 01:19:11;;;;;;;5.75;3.75;;;;;;;19.41;100.00;95345.78;5030178;28;24470;-74
2022/06/22 01:21:44;;;;;;;6.82;3.65;;;;;;;19.25;100.00;95352.63;5034114;28;24426;-74
2022/06/22 01:24:24;;;;;;;7.20;4.05;;;;;;;19.18;100.00;95356.06;5034198;28;24804;-74
2022/06/22 01:27:31;;;;;;;4.77;3.63;;;;;;;19.25;100.00;95364.94;5033979;28;24478;-74
2022/06/22 01:30:03;;;;;;;5.18;3.65;;;;;;;19.40;100.00;95359.91;5033962;28;24524;-74
2022/06/22 01:32:34;;;;;;;5.43;3.95;;;;;;;19.48;100.00;95360.72;5034153;28;24530;-74
2022/06/22 01:35:04;;;;;;;4.10;3.50;;;;;;;19.49;100.00;95375.50;5033748;28;24419;-74
2022/06/22 01:37:34;;;;;;;5.97;3.72;;;;;;;19.40;100.00;95375.66;5032898;28;24451;-74
2022/06/22 01:40:07;;;;;;;4.85;3.90;;;;;;;19.46;100.00;95367.13;5034349;28;24431;-74
2022/06/22 01:42:41;;;;;;;5.60;3.85;;;;;;;19.47;100.00;95347.78;5033605;28;24463;-74
2022/06/22 01:45:18;;;;;;;4.83;3.57;;;;;;;19.52;100.00;95333.16;5014013;28;24413;-74
2022/06/22 01:47:50;;;;;;;5.63;4.03;;;;;;;19.62;100.00;95324.31;5013492;28;24935;-74
2022/06/22 01:50:22;;;;;;;4.90;3.70;;;;;;;19.52;100.00;95325.28;5013622;28;24449;-75
2022/06/22 01:52:59;;;;;;;6.97;4.40;;;;;;;19.32;100.00;95326.56;5014001;28;24427;-74
2022/06/22 01:55:35;;;;;;;6.50;3.90;;;;;;;19.22;100.00;95337.19;5013185;28;24790;-74
2022/06/22 01:58:23;;;;;;;4.27;3.60;;;;;;;19.17;100.00;95338.66;5013774;28;24460;-74
2022/06/22 02:00:54;;;;;;;7.05;4.15;;;;;;;19.02;100.00;95336.66;5013498;28;24417;-74
2022/06/22 02:03:25;;;;;;;5.25;3.60;;;;;;;18.88;100.00;95339.06;5013766;28;24415;-74
2022/06/22 02:05:58;;;;;;;5.68;4.05;;;;;;;19.05;100.00;95328.44;5013545;28;24428;-74
2022/06/22 02:08:30;;;;;;;5.57;4.20;;;;;;;19.66;100.00;95313.34;5013209;28;24988;-74
2022/06/22 02:11:02;;;;;;;11.95;5.15;;;;;;;19.53;100.00;95292.78;5013569;28;24424;-74
2022/06/22 02:13:37;;;;;;;7.10;4.55;;;;;;;19.35;100.00;95284.22;5013702;28;24412;-74
2022/06/22 02:16:11;;;;;;;5.88;4.32;;;;;;;19.12;100.00;95299.75;5027305;28;24431;-74
2022/06/22 02:18:43;;;;;;;7.15;4.22;;;;;;;18.59;100.00;95301.69;5033321;28;24444;-74
2022/06/22 02:21:18;;;;;;;7.75;4.85;;;;;;;18.54;100.00;95313.59;5033377;28;25186;-74
2022/06/22 02:23:47;;;;;;;8.27;5.18;;;;;;;18.32;100.00;95321.03;5033185;28;24456;-74
2022/06/22 02:26:17;;;;;;;7.47;5.40;;;;;;;18.33;100.00;95314.00;5032704;28;24822;-74
2022/06/22 02:28:46;;;;;;;5.85;4.40;;;;;;;18.45;100.00;95315.38;5032894;28;24781;-74
2022/06/22 02:31:13;;;;;;;7.10;4.90;;;;;;;18.43;100.00;95309.47;5032033;28;24444;-76
2022/06/22 02:33:43;;;;;;;6.43;5.07;;;;;;;18.53;100.00;95317.22;5032928;28;24427;-74
2022/06/22 02:36:12;;;;;;;7.00;5.20;;;;;;;18.52;100.00;95315.56;5032548;28;24960;-74
2022/06/22 02:38:41;;;;;;;5.93;4.75;;;;;;;18.54;100.00;95326.72;5032704;28;24424;-74
2022/06/22 02:46:41;;;;;;;8.13;4.83;;;;;;;18.55;100.00;95321.31;5032305;28;24423;-74
2022/06/22 02:49:13;;;;;;;5.93;4.45;;;;;;;18.59;100.00;95321.84;5032642;28;24428;-74
2022/06/22 02:51:44;;;;;;;7.50;4.80;;;;;;;18.54;100.00;95317.06;5032514;28;24446;-74
2022/06/22 02:54:20;;;;;;;9.27;4.60;;;;;;;18.43;100.00;95314.72;5032541;28;24451;-74
2022/06/22 02:56:51;;;;;;;7.60;4.70;;;;;;;18.51;100.00;95306.06;5032247;28;24431;-74
2022/06/22 02:59:19;;;;;;;8.05;5.20;;;;;;;18.50;100.00;95300.00;5032105;28;24949;-74
2022/06/22 03:01:46;;;;;;;6.80;4.65;;;;;;;18.54;100.00;95309.19;5032197;28;24808;-74
2022/06/22 03:04:15;;;;;;;8.20;4.43;;;;;;;18.52;100.00;95303.28;5032103;28;24449;-74
2022/06/22 03:06:45;;;;;;;6.82;4.72;;;;;;;18.46;100.00;95303.06;5031705;28;24466;-74
2022/06/22 03:09:12;;;;;;;7.00;5.05;;;;;;;18.45;100.00;95297.00;5031631;28;24420;-74
2022/06/22 03:11:41;;;;;;;8.70;4.85;;;;;;;18.47;100.00;95295.06;5031740;28;24458;-74
2022/06/22 03:14:18;;;;;;;7.72;4.70;;;;;;;18.30;100.00;95302.00;5031704;28;24424;-74
2022/06/22 03:16:50;;;;;;;6.35;4.50;;;;;;;18.42;100.00;95304.38;5031739;28;24420;-74
2022/06/22 03:19:22;;;;;;;7.07;5.43;;;;;;;18.43;100.00;95311.25;5031611;28;24447;-74
2022/06/22 03:21:50;;;;;;;5.07;4.40;;;;;;;18.40;100.00;95315.03;5031326;28;24411;-74
2022/06/22 03:24:36;;;;;;;10.73;5.15;;;;;;;18.40;100.00;95315.03;5031143;28;24498;-74
2022/06/22 03:27:06;;;;;;;7.47;5.05;;;;;;;18.54;100.00;95317.06;5031530;28;24462;-74
2022/06/22 03:29:36;;;;;;;7.25;4.55;;;;;;;18.62;100.00;95314.47;5031672;28;24428;-74
2022/06/22 03:32:08;;;;;;;5.45;4.30;;;;;;;18.70;100.00;95312.88;5031100;28;24455;-74
2022/06/22 03:34:39;;;;;;;5.40;4.30;;;;;;;18.91;100.00;95313.31;5031657;28;24427;-74
2022/06/22 03:37:12;;;;;;;4.90;4.10;;;;;;;18.99;100.00;95318.59;5031189;28;24955;-74
2022/06/22 03:39:43;;;;;;;7.80;4.47;;;;;;;18.83;100.00;95310.66;5031425;28;24428;-74
2022/06/22 03:42:14;;;;;;;6.43;4.53;;;;;;;18.91;100.00;95313.31;5031359;28;24941;-74
2022/06/22 03:44:46;;;;;;;5.45;4.88;;;;;;;19.01;100.00;95314.00;5030729;28;24430;-74
2022/06/22 03:47:16;;;;;;;6.90;4.90;;;;;;;18.93;100.00;95321.03;5031256;28;24514;-74
2022/06/22 03:49:50;;;;;;;9.15;4.57;;;;;;;18.52;100.00;95320.81;5031262;28;24785;-74
2022/06/22 03:52:19;;;;;;;7.60;4.88;;;;;;;18.33;100.00;95329.72;5031387;28;24494;-74
2022/06/22 03:54:53;;;;;;;8.30;4.88;;;;;;;18.36;100.00;95322.38;5031053;28;24416;-74
2022/06/22 03:57:25;;;;;;;6.53;4.70;;;;;;;18.55;100.00;95313.47;5030475;28;24961;-74
2022/06/22 03:59:52;;;;;;;5.65;4.53;;;;;;;18.61;100.00;95322.50;5031364;28;24408;-74
2022/06/22 04:02:20;;;;;;;5.45;4.93;;;;;;;18.37;100.00;95318.78;5029193;28;24439;-74
2022/06/22 04:04:51;;;;;;;6.70;5.05;;;;;;;18.29;100.00;95323.16;5030773;28;24436;-75
2022/06/22 04:07:18;;;;;;;6.30;4.68;;;;;;;18.21;100.00;95326.53;5030604;28;24427;-74
2022/06/22 04:09:52;;;;;;;7.37;4.53;;;;;;;18.27;100.00;95336.41;5030643;28;24435;-75
2022/06/22 04:12:24;;;;;;;5.57;4.43;;;;;;;18.41;100.00;95321.09;5030821;28;24448;-74
2022/06/22 04:14:58;;;;;;;5.53;4.80;;;;;;;18.57;100.00;95319.34;5031005;28;24543;-74
2022/06/22 04:17:30;;;;;;;8.88;5.15;;;;;;;18.59;100.00;95322.66;5030544;28;24774;-74
2022/06/22 04:20:05;;;;;;;7.40;4.88;;;;;;;18.45;100.00;95318.00;5030416;28;24435;-75
2022/06/22 04:22:37;;;;;;;6.03;4.30;;;;;;;18.43;100.00;95316.50;5027709;28;24829;-75
2022/06/22 04:25:14;;;;;;;8.20;5.03;;;;;;;18.35;100.00;95317.28;5030919;28;24778;-75
2022/06/22 04:27:45;;;;;;;6.30;4.50;;;;;;;18.34;100.00;95310.38;5030399;28;24531;-75
2022/06/22 04:30:16;;;;;;;5.00;4.30;;;;;;;18.40;100.00;95320.25;5031133;28;24420;-75
2022/06/22 04:32:49;;;;;;;8.73;4.97;;;;;;;18.48;100.00;95322.09;5030847;28;24486;-75
2022/06/22 04:35:30;;;;;;;7.90;5.20;;;;;;;18.55;100.00;95318.72;5032297;28;24435;-75
2022/06/22 04:38:01;;;;;;;5.63;4.18;;;;;;;18.66;100.00;95322.03;5026904;28;24436;-75
2022/06/22 04:40:33;;;;;;;5.88;4.95;;;;;;;18.73;100.00;95318.66;5030976;28;24481;-75
2022/06/22 04:43:03;;;;;;;4.90;4.35;;;;;;;18.80;100.00;95314.44;5031214;28;24482;-75
2022/06/22 04:45:33;;;;;;;6.30;4.75;;;;;;;18.84;100.00;95313.13;5030121;28;24949;-74
2022/06/22 04:48:04;;;;;;;8.90;4.80;;;;;;;18.92;100.00;95324.63;5030488;28;24465;-74
2022/06/22 04:50:31;;;;;;;6.60;4.70;;;;;;;19.04;100.00;95329.44;5030375;28;24806;-74
2022/06/22 04:53:02;;;;;;;5.60;4.70;;;;;;;19.05;100.00;95335.50;5030323;28;24462;-74
2022/06/22 04:55:30;;;;;;;6.47;4.78;;;;;;;19.13;100.00;95338.16;5032539;28;24439;-74
2022/06/22 04:58:04;;;;;;;6.65;5.10;;;;;;;19.48;100.00;95341.53;5034711;28;24436;-74
2022/06/22 05:00:34;;;;;;;8.50;5.80;;;;;;;19.34;100.00;95337.72;5034526;28;24461;-74
2022/06/22 05:03:06;;;;;;;7.68;5.72;;;;;;;19.26;100.00;95333.28;5034502;28;24451;-74
2022/06/22 05:05:35;;;;;;;6.38;5.32;;;;;;;19.03;100.00;95337.47;5033957;28;24988;-74
2022/06/22 05:08:07;;;;;;;7.57;4.80;;;;;;;19.02;100.00;95334.03;5033899;28;24498;-76
2022/06/22 05:10:42;;;;;;;7.80;5.80;;;;;;;19.13;100.00;95346.03;5034970;28;24420;-75
2022/06/22 05:13:14;;;;;;;9.45;5.72;;;;;;;19.21;100.00;95356.56;5034747;28;24805;-74
2022/06/22 05:15:44;;;;;;;7.17;6.13;;;;;;;19.25;100.00;95367.56;5034027;28;24744;-75
2022/06/22 05:18:18;;;;;;;6.78;5.43;;;;;;;19.27;100.00;95365.59;5033874;28;24430;-75
2022/06/22 05:20:49;;;;;;;9.80;5.95;;;;;;;19.30;100.00;95365.28;5033841;28;24980;-75
2022/06/22 05:23:19;;;;;;;6.32;5.00;;;;;;;19.32;100.00;95377.28;5031012;28;24431;-75
2022/06/22 05:25:49;;;;;;;6.57;5.22;;;;;;;19.13;100.00;95372.28;5028506;28;25031;-75
2022/06/22 05:28:20;;;;;;;8.00;5.90;;;;;;;19.16;100.00;95371.94;5033522;28;24432;-75
2022/06/22 05:30:51;;;;;;;5.55;5.05;;;;;;;19.15;100.00;95372.13;5033559;28;24427;-72
2022/06/22 05:33:23;;;;;;;11.73;5.63;;;;;;;19.12;100.00;95369.81;5033418;28;24987;-76
2022/06/22 05:35:54;;;;;;;8.82;5.45;;;;;;;19.02;100.00;95383.06;5033458;28;24874;-77
2022/06/22 05:38:22;;;;;;;8.05;5.25;;;;;;;19.03;100.00;95392.59;5033686;28;24490;-76
2022/06/22 05:40:51;;;;;;;12.15;5.28;;;;;;;19.01;100.00;95394.53;5033746;28;24422;-76
2022/06/22 05:43:18;;;;;;;10.68;6.28;;;;;;;18.83;100.00;95398.06;5016493;28;24522;-75
2022/06/22 05:45:48;;;;;;;8.32;4.97;;;;;;;18.71;100.00;95399.31;5013734;28;24417;-76
2022/06/22 05:48:23;;;;;;;6.35;5.30;;;;;;;18.85;100.00;95398.72;5028642;28;24462;-75
2022/06/22 05:50:54;;;;;;;7.23;5.57;;;;;;;18.93;100.00;95405.81;5024239;28;24524;-75
2022/06/22 05:53:26;;;;;;;8.60;5.90;;;;;;;18.80;100.00;95415.91;5032076;28;24455;-78
2022/06/22 05:56:06;;;;;;;10.45;6.10;;;;;;;18.79;100.00;95422.94;5036493;28;24439;-77
2022/06/22 05:58:40;;;;;;;7.15;5.40;;;;;;;18.89;100.00;95425.47;5033259;28;24490;-75
2022/06/22 06:01:17;;;;;;;5.80;5.05;;;;;;;19.01;100.00;95411.09;5033538;28;24462;-76
2022/06/22 06:03:52;;;;;;;6.97;4.97;;;;;;;19.14;100.00;95413.31;5033238;28;24957;-75
2022/06/22 06:06:24;;;;;;;8.60;5.07;;;;;;;19.04;100.00;95409.97;5031718;28;24836;-75
2022/06/22 06:08:54;;;;;;;7.40;5.30;;;;;;;19.05;100.00;95430.81;5032800;28;24435;-76
2022/06/22 06:11:24;;;;;;;5.53;4.90;;;;;;;19.15;100.00;95429.88;5032655;28;24435;-75
2022/06/22 06:13:58;;;;;;;14.43;5.67;;;;;;;19.26;100.00;95421.72;5033017;28;24488;-75
2022/06/22 06:16:27;;;;;;;8.02;5.07;;;;;;;19.32;100.00;95426.34;5032589;28;24420;-75
2022/06/22 06:18:58;;;;;;;8.93;6.03;;;;;;;19.14;100.00;95426.44;5033121;28;24482;-76
2022/06/22 06:21:29;;;;;;;8.13;5.45;;;;;;;19.03;100.00;95424.09;5032802;28;25138;-75
2022/06/22 06:24:00;;;;;;;8.80;5.47;;;;;;;19.04;100.00;95420.47;5032873;28;24497;-76
2022/06/22 06:29:23;;;;;;;5.87;5.27;;;;;;;19.35;100.00;95412.88;5011532;28;24423;-75
2022/06/22 06:32:02;;;;;;;10.25;5.50;;;;;;;19.56;100.00;95413.28;5032824;28;24848;-75
2022/06/22 06:34:35;;;;;;;7.27;5.43;;;;;;;19.65;100.00;95415.94;5032768;28;24416;-76
2022/06/22 06:37:09;;;;;;;7.45;5.43;;;;;;;19.56;100.00;95407.22;5032330;28;24965;-77
2022/06/22 06:39:42;;;;;;;8.90;6.18;;;;;;;19.86;100.00;95415.50;5032404;28;24439;-75
2022/06/22 06:42:21;;;;;;;6.40;5.67;;;;;;;19.71;100.00;95415.31;5032643;28;24809;-75
2022/06/22 06:44:51;;;;;;;8.10;6.13;;;;;;;19.43;100.00;95418.19;5032408;28;24932;-75
2022/06/22 06:47:24;;;;;;;7.30;5.68;;;;;;;19.33;100.00;95412.22;5032401;28;24442;-75
2022/06/22 06:49:56;;;;;;;9.23;6.30;;;;;;;19.52;100.00;95405.88;5032580;28;24431;-76
2022/06/22 06:52:33;;;;;;;9.10;6.35;;;;;;;19.43;100.00;95407.69;5032075;28;24444;-75
2022/06/22 06:55:07;;;;;;;8.43;6.32;;;;;;;19.68;100.00;95407.75;5032233;28;24932;-75
2022/06/22 06:57:35;;;;;;;8.23;6.30;;;;;;;19.67;100.00;95404.31;5032351;28;24422;-74
2022/06/22 07:00:06;;;;;;;8.95;6.82;;;;;;;20.11;100.00;95385.63;5032282;28;24995;-75
2022/06/22 07:02:36;;;;;;;9.30;7.37;;;;;;;20.22;100.00;95382.69;5032195;28;24626;-75
2022/06/22 07:05:07;;;;;;;9.10;6.65;;;;;;;19.91;100.00;95363.28;5032435;28;24435;-75
2022/06/22 07:07:40;;;;;;;8.73;6.37;;;;;;;19.74;100.00;95371.16;5031713;28;24416;-74
2022/06/22 07:10:13;;;;;;;9.52;7.30;;;;;;;19.50;100.00;95371.88;5039682;22;24464;-74
2022/06/22 07:12:45;;;;;;;6.95;6.15;;;;;;;19.48;100.00;95380.94;5029838;28;24436;-73
2022/06/22 07:15:16;;;;;;;7.95;5.70;;;;;;;19.50;100.00;95371.88;5032399;28;24424;-72
2022/06/22 07:17:45;;;;;;;10.65;6.00;;;;;;;19.61;100.00;95375.19;5031719;28;24805;-74
2022/06/22 07:20:19;;;;;;;8.02;5.10;;;;;;;19.71;100.00;95384.59;5032077;28;24440;-75
2022/06/22 07:22:49;;;;;;;10.50;5.93;;;;;;;19.91;100.00;95381.66;5030596;28;24428;-73
2022/06/22 07:25:21;;;;;;;15.65;6.97;;;;;;;19.99;100.00;95398.28;5031860;28;24948;-73
2022/06/22 07:27:54;;;;;;;8.75;5.75;;;;;;;20.09;100.00;95398.09;5031644;28;24431;-73
2022/06/22 07:30:28;;;;;;;6.65;5.63;;;;;;;20.13;100.00;95403.84;5031842;28;24416;-74
2022/06/22 07:33:00;;;;;;;8.23;5.07;;;;;;;20.14;100.00;95400.28;5031552;28;24475;-75
2022/06/22 07:35:34;;;;;;;8.05;5.47;;;;;;;20.29;100.00;95402.06;5031380;28;24436;-76
2022/06/22 07:38:08;;;;;;;9.90;6.32;;;;;;;20.53;100.00;95414.41;5031758;28;24419;-73
2022/06/22 07:40:38;;;;;;;9.37;6.27;;;;;;;20.49;100.00;95410.47;5031939;28;24422;-73
2022/06/22 07:43:05;;;;;;;8.60;5.80;;;;;;;20.34;100.00;95412.09;5031823;28;24424;-73
2022/06/22 07:45:32;;;;;;;8.80;5.25;;;;;;;20.48;100.00;95416.69;5031456;28;24423;-74
2022/06/22 07:48:05;;;;;;;6.78;5.20;;;;;;;20.50;100.00;95414.72;5031667;28;24490;-75
2022/06/22 07:50:37;;;;;;;6.75;5.13;;;;;;;20.54;100.00;95408.16;5031363;28;24477;-74
2022/06/22 07:53:07;;;;;;;8.00;5.57;;;;;;;20.72;100.00;95421.09;5031290;28;24489;-73
2022/06/22 07:55:41;;;;;;;7.55;5.07;;;;;;;20.61;100.00;95420.63;5030995;28;25152;-73
2022/06/22 07:58:26;;;;;;;6.38;5.07;;;;;;;20.53;100.00;95427.56;5031278;28;24423;-74
2022/06/22 08:00:57;;;;;;;7.93;4.88;;;;;;;20.24;100.00;95422.75;5031445;28;24416;-73
2022/06/22 08:03:30;;;;;;;6.18;5.22;;;;;;;20.21;100.00;95425.75;5031445;28;24416;-74
2022/06/22 08:06:03;;;;;;;13.60;5.77;;;;;;;20.16;100.00;95421.94;5030976;28;24424;-73
2022/06/22 08:08:34;;;;;;;15.30;6.20;;;;;;;20.25;100.00;95421.78;5030743;28;24443;-75
2022/06/22 08:11:08;;;;;;;11.57;5.07;;;;;;;20.24;100.00;95430.66;5027918;28;24440;-74
2022/06/22 08:13:40;;;;;;;6.93;5.15;;;;;;;20.31;100.00;95426.38;5028206;28;24455;-74
2022/06/22 08:16:12;;;;;;;5.38;4.32;;;;;;;20.41;100.00;95423.59;5030623;28;24432;-75
2022/06/22 08:18:39;;;;;;;10.75;5.18;;;;;;;20.37;100.00;95424.91;5030619;28;24440;-73
2022/06/22 08:21:14;;;;;;;7.75;5.00;;;;;;;20.38;100.00;95431.00;5030796;28;24424;-72
2022/06/22 08:23:40;;;;;;;6.83;4.90;;;;;;;20.30;100.00;95423.91;5031035;28;24416;-73
2022/06/22 08:26:15;;;;;;;8.27;5.07;;;;;;;20.20;100.00;95425.88;5030626;28;24520;-75
2022/06/22 08:28:41;;;;;;;12.48;4.90;;;;;;;20.22;100.00;95429.19;5030483;28;24794;-76
2022/06/22 08:31:08;;;;;;;10.70;5.43;;;;;;;20.28;100.00;95426.72;5030763;28;24538;-74
2022/06/22 08:33:38;;;;;;;6.90;5.07;;;;;;;20.29;100.00;95441.50;5030587;28;24440;-75
2022/06/22 08:36:13;;;;;;;8.20;5.43;;;;;;;20.33;100.00;95441.19;5030514;28;24411;-74
2022/06/22 08:38:42;;;;;;;8.23;6.30;;;;;;;20.40;100.00;95445.63;5030861;28;24435;-72
2022/06/22 08:41:21;;;;;;;9.27;5.83;;;;;;;20.39;100.00;95441.34;5031119;28;24447;-73
2022/06/22 08:43:56;;;;;;;9.02;6.47;;;;;;;20.43;100.00;95454.97;5030897;28;24435;-74
2022/06/22 08:46:37;;;;;;;6.93;5.50;;;;;;;20.50;100.00;95446.28;5030466;28;24478;-73
2022/06/22 08:49:25;;;;;;;11.10;5.90;;;;;;;20.53;100.00;95448.59;5030357;28;24428;-72
2022/06/22 08:52:13;;;;;;;7.60;5.88;;;;;;;20.55;100.00;95451.06;5030522;28;25023;-73
2022/06/22 08:55:00;;;;;;;7.35;5.53;;;;;;;20.68;100.00;95443.47;5030467;28;24423;-73
2022/06/22 08:57:40;;;;;;;7.97;5.70;;;;;;;20.71;100.00;95448.41;5030510;28;24427;-73
2022/06/22 09:00:15;;;;;;;11.02;5.65;;;;;;;20.85;100.00;95446.94;5030601;28;24507;-74
2022/06/22 09:03:27;;;;;;;7.30;5.47;;;;;;;20.95;100.00;95452.84;5030582;28;24416;-74
2022/06/22 09:06:22;;;;;;;7.78;5.65;;;;;;;21.05;100.00;95447.38;5030525;28;24433;-74
2022/06/22 09:09:23;;;;;;;8.02;5.97;;;;;;;21.10;100.00;95454.75;5030293;28;24439;-74
2022/06/22 09:12:04;;;;;;;11.00;6.20;;;;;;;21.05;100.00;95464.97;5010301;28;24443;-75
2022/06/22 09:14:52;;;;;;;8.52;6.03;;;;;;;21.05;100.00;95457.91;5030500;28;24419;-73
2022/06/22 09:17:31;;;;;;;11.50;6.50;;;;;;;21.09;100.00;95453.13;5030344;28;24512;-74
2022/06/22 09:20:12;;;;;;;13.23;6.83;;;;;;;20.77;100.00;95455.66;5030412;28;24513;-74
2022/06/22 09:22:52;;;;;;;9.57;6.80;;;;;;;20.92;100.00;95457.63;5030709;28;24427;-75
2022/06/22 09:25:28;;;;;;;8.75;6.65;;;;;;;20.95;100.00;95455.47;5030620;28;24451;-74
2022/06/22 09:28:01;;;;;;;11.63;6.70;;;;;;;21.00;100.00;95454.97;5030524;28;24481;-73
2022/06/22 09:30:45;;;;;;;7.90;6.67;;;;;;;21.13;100.00;95454.41;5030104;28;25059;-73
2022/06/22 09:33:29;;;;;;;13.57;7.40;;;;;;;21.27;100.00;95456.34;5030175;28;24447;-73
2022/06/22 09:36:30;;;;;;;9.48;6.50;;;;;;;21.36;100.00;95455.38;5030133;28;24420;-73
2022/06/22 09:39:14;;;;;;;8.80;6.18;;;;;;;21.38;100.00;95447.28;5029916;28;24477;-74
2022/06/22 09:41:52;;;;;;;9.00;6.72;;;;;;;21.32;100.00;95456.69;5032718;28;24415;-73
2022/06/22 09:44:46;;;;;;;9.00;6.00;;;;;;;21.35;100.00;95456.34;5033821;28;24423;-73
2022/06/22 09:47:27;;;;;;;10.80;6.10;;;;;;;21.31;100.00;95455.03;5030861;28;24444;-73
2022/06/22 09:50:35;;;;;;;12.00;6.55;;;;;;;21.24;100.00;95456.69;5033950;28;24423;-73
2022/06/22 09:53:47;;;;;;;9.65;6.13;;;;;;;21.24;100.00;95472.50;5033622;28;24452;-73
2022/06/22 09:56:37;;;;;;;8.25;5.95;;;;;;;21.15;100.00;95469.06;5007873;28;24470;-73
2022/06/22 09:59:32;;;;;;;10.20;6.45;;;;;;;20.99;100.00;95475.19;5033459;28;24826;-73
2022/06/22 10:02:12;;;;;;;6.93;5.72;;;;;;;20.94;100.00;95474.03;5033133;28;24424;-74
2022/06/22 10:04:59;;;;;;;8.07;5.88;;;;;;;20.91;100.00;95471.75;5033299;28;24412;-74
2022/06/22 10:07:42;;;;;;;9.00;6.33;;;;;;;20.86;100.00;95476.69;5032899;28;24477;-74
2022/06/22 10:10:24;;;;;;;10.37;6.30;;;;;;;20.75;100.00;95483.94;5032841;28;24435;-74
2022/06/22 10:13:23;;;;;;;12.38;6.82;;;;;;;20.76;100.00;95490.03;5032829;28;24998;-74
2022/06/22 10:16:10;;;;;;;7.50;6.00;;;;;;;20.82;100.00;95492.00;5022822;28;24531;-73
2022/06/22 10:18:48;;;;;;;7.78;5.80;;;;;;;20.73;100.00;95498.28;5029705;28;24505;-74
2022/06/22 10:21:25;;;;;;;17.07;5.13;;;;;;;20.69;100.00;95499.56;5032617;28;24990;-74
2022/06/22 10:24:07;;;;;;;7.72;4.97;;;;;;;20.64;100.00;95507.13;5033012;28;24935;-73
2022/06/22 10:26:49;;;;;;;7.85;4.70;;;;;;;20.43;100.00;95512.84;5032542;28;24461;-74
2022/06/22 10:29:37;;;;;;;6.13;4.43;;;;;;;20.46;100.00;95507.25;5019451;28;24838;-73
2022/06/22 10:32:26;;;;;;;6.82;3.92;;;;;;;20.50;100.00;95498.91;5023144;28;24431;-73
2022/06/22 10:35:01;;;;;;;7.45;4.28;;;;;;;20.41;100.00;95502.50;5032300;28;24416;-74
2022/06/22 10:37:42;;;;;;;6.20;4.43;;;;;;;20.36;100.00;95503.97;5032448;28;24427;-74
2022/06/22 10:46:11;;;;;;;6.45;4.50;;;;;;;20.42;100.00;95511.22;5032166;28;24495;-74
2022/06/22 10:49:03;;;;;;;6.20;5.13;;;;;;;20.27;100.00;95511.84;5032262;28;25007;-74
2022/06/22 10:51:49;;;;;;;7.47;5.32;;;;;;;20.20;100.00;95502.97;5032351;28;24427;-74
2022/06/22 10:54:49;;;;;;;6.45;4.75;;;;;;;20.23;100.00;95513.16;5032150;28;24450;-73
2022/06/22 10:57:33;;;;;;;5.85;4.80;;;;;;;20.27;100.00;95514.47;5032364;28;24435;-73
2022/06/22 11:00:11;;;;;;;7.97;5.40;;;;;;;20.21;100.00;95519.56;5032425;28;24440;-73
2022/06/22 11:03:09;;;;;;;6.93;5.45;;;;;;;20.14;100.00;95527.28;5032470;28;24527;-75
2022/06/22 11:05:49;;;;;;;8.73;5.72;;;;;;;20.05;100.00;95525.59;5031852;28;24482;-74
2022/06/22 11:09:00;;;;;;;10.45;5.80;;;;;;;19.88;100.00;95531.81;5031775;28;24423;-74
2022/06/22 11:11:43;;;;;;;9.07;5.32;;;;;;;19.88;100.00;95537.06;5025556;28;24992;-74
2022/06/22 11:14:50;;;;;;;11.50;5.80;;;;;;;19.94;100.00;95534.59;5032006;28;24672;-74
2022/06/22 11:17:30;;;;;;;7.50;5.43;;;;;;;19.99;100.00;95529.72;5031377;28;25069;-75
2022/06/22 11:20:16;;;;;;;11.50;6.20;;;;;;;20.00;100.00;95530.53;5031730;28;24481;-75
2022/06/22 11:22:48;;;;;;;8.38;5.47;;;;;;;20.03;100.00;95541.56;5031683;28;24426;-74
2022/06/22 11:31:46;;;;;;;7.93;5.50;;;;;;;20.20;100.00;95539.78;5031512;28;24411;-74
2022/06/22 11:34:36;;;;;;;8.23;5.70;;;;;;;20.11;100.00;95535.50;5031306;28;25106;-74
2022/06/22 11:37:12;;;;;;;10.23;6.17;;;;;;;20.12;100.00;95529.25;5031349;28;24511;-74
2022/06/22 11:40:07;;;;;;;7.97;6.05;;;;;;;20.22;100.00;95531.75;5031398;28;24949;-74
2022/06/22 11:42:48;;;;;;;8.68;6.30;;;;;;;20.28;100.00;95524.03;5031050;28;24493;-74
2022/06/22 11:48:56;;;;;;;7.80;5.13;;;;;;;20.48;100.00;95511.38;5030974;28;24509;-74
2022/06/22 11:51:52;;;;;;;11.38;5.63;;;;;;;20.52;100.00;95504.84;4995684;28;24806;-74
2022/06/22 11:54:32;;;;;;;7.20;5.38;;;;;;;20.58;100.00;95515.69;5030887;28;24462;-74
2022/06/22 11:57:15;;;;;;;9.60;5.50;;;;;;;20.71;100.00;95505.50;5031432;28;24426;-73
2022/06/22 11:59:56;;;;;;;10.52;5.43;;;;;;;20.93;100.00;95502.19;5031068;28;24941;-73
2022/06/22 12:03:02;;;;;;;11.63;5.55;;;;;;;20.86;100.00;95506.47;5031317;28;24416;-74
2022/06/22 12:05:45;;;;;;;10.77;5.47;;;;;;;20.78;100.00;95496.78;5004773;28;24443;-73
2022/06/22 12:08:35;;;;;;;10.57;4.88;;;;;;;20.91;100.00;95498.06;5030907;28;24412;-73
2022/06/22 12:11:14;;;;;;;13.43;5.85;;;;;;;20.77;100.00;95503.03;5031110;28;24498;-73
2022/06/22 12:16:54;;;;;;;12.70;4.93;;;;;;;20.88;100.00;95488.72;5030594;28;24461;-73
2022/06/22 12:19:33;;;;;;;8.75;4.57;;;;;;;20.94;100.00;95485.41;5030657;28;24428;-73
2022/06/22 12:22:16;;;;;;;9.40;4.37;;;;;;;20.98;100.00;95484.06;5030947;28;24466;-73
2022/06/22 12:25:01;;;;;;;11.25;5.43;;;;;;;20.94;100.00;95474.03;5030714;28;24954;-73
2022/06/22 12:27:32;;;;;;;12.05;4.68;;;;;;;21.09;100.00;95469.72;5030285;28;24941;-73
2022/06/22 12:30:17;;;;;;;11.85;5.22;;;;;;;21.16;100.00;95464.63;5030680;28;24451;-75
2022/06/22 12:32:49;;;;;;;9.02;4.68;;;;;;;21.21;100.00;95462.28;5030611;28;24427;-73